Time;durP1;ratioP1;P1;durP2;ratioP2;P2;SDS_P1;SDS_P2;PMS_P1;PMS_P2;Temp;Humidity;BMP_temperature;BMP_pressure;BME280_temperature;BME280_humidity;BME280_pressure;Samples;Min_cycle;Max_cycle;Signal;HPM_P1;HPM_P2
2022/03/13 00:01:46;;;;;;;22.73;9.80;;;;;;;-2.02;64.93;95478.59;5028956;28;20419;-72
2022/03/13 00:04:13;;;;;;;22.92;10.60;;;;;;;-2.30;65.32;95477.66;5040012;28;20721;-72
2022/03/13 00:06:39;;;;;;;29.73;10.43;;;;;;;-2.41;66.67;95469.63;5029843;28;20095;-72
2022/03/13 00:09:12;;;;;;;22.05;11.02;;;;;;;-2.50;67.45;95467.22;5034097;28;20045;-72
2022/03/13 00:11:38;;;;;;;19.83;9.93;;;;;;;-2.37;65.94;95471.69;5030103;28;20069;-72
2022/03/13 00:14:05;;;;;;;27.08;11.00;;;;;;;-2.19;65.74;95478.13;5041482;28;20042;-72
2022/03/13 00:16:31;;;;;;;26.50;9.68;;;;;;;-2.18;65.18;95475.34;5048003;28;20041;-72
2022/03/13 00:18:59;;;;;;;22.10;10.90;;;;;;;-2.17;65.24;95471.78;5047872;28;20079;-72
2022/03/13 00:21:25;;;;;;;27.60;11.00;;;;;;;-2.15;65.07;95474.97;5032718;28;20041;-72
2022/03/13 00:23:50;;;;;;;18.17;10.00;;;;;;;-2.14;65.52;95478.31;5032291;28;20083;-72
2022/03/13 00:26:17;;;;;;;25.05;9.98;;;;;;;-2.12;65.27;95473.78;5029912;28;20050;-72
2022/03/13 00:28:44;;;;;;;21.63;9.90;;;;;;;-2.16;65.58;95472.56;5037550;28;20676;-72
2022/03/13 00:31:10;;;;;;;28.02;11.10;;;;;;;-2.37;66.81;95460.53;5033839;28;20045;-75
2022/03/13 00:33:35;;;;;;;21.73;10.15;;;;;;;-2.63;68.54;95467.94;5044208;28;20098;-72
2022/03/13 00:36:01;;;;;;;24.50;10.07;;;;;;;-2.38;66.79;95469.28;5044891;28;20037;-72
2022/03/13 00:38:27;;;;;;;22.15;9.85;;;;;;;-2.28;66.30;95470.53;5048482;28;20049;-72
2022/03/13 00:40:55;;;;;;;26.98;10.10;;;;;;;-2.56;67.33;95470.53;5045836;28;20041;-72
2022/03/13 00:43:23;;;;;;;23.40;10.13;;;;;;;-2.33;67.08;95467.75;5029065;28;20053;-75
2022/03/13 00:45:49;;;;;;;23.48;10.50;;;;;;;-2.29;65.69;95468.94;5045745;28;20124;-72
2022/03/13 00:48:15;;;;;;;20.95;9.63;;;;;;;-2.41;65.90;95465.31;5042772;28;20048;-72
2022/03/13 00:50:42;;;;;;;25.30;10.02;;;;;;;-2.45;66.69;95464.06;5043403;28;20038;-75
2022/03/13 00:53:08;;;;;;;24.35;10.98;;;;;;;-2.43;66.06;95467.25;5046080;28;20049;-73
2022/03/13 00:55:33;;;;;;;20.90;9.93;;;;;;;-2.53;67.27;95451.34;5033915;28;20073;-73
2022/03/13 00:58:00;;;;;;;20.15;9.30;;;;;;;-2.53;66.51;95459.06;5044891;28;20048;-73
2022/03/13 01:00:26;;;;;;;25.65;10.05;;;;;;;-2.58;66.90;95453.69;5047373;28;20450;-72
2022/03/13 01:02:52;;;;;;;22.67;9.60;;;;;;;-2.63;66.75;95443.94;5046346;28;20383;-73
2022/03/13 01:05:23;;;;;;;22.17;10.02;;;;;;;-2.62;67.35;95438.59;5041622;28;20390;-72
2022/03/13 01:07:59;;;;;;;28.50;9.75;;;;;;;-2.59;67.65;95441.78;5068659;28;20047;-72
2022/03/13 01:10:26;;;;;;;20.13;9.68;;;;;;;-2.63;67.72;95431.03;5060095;28;20053;-72
2022/03/13 01:12:52;;;;;;;21.52;9.18;;;;;;;-3.00;69.19;95435.56;5044832;28;20036;-72
2022/03/13 01:15:19;;;;;;;20.27;9.75;;;;;;;-2.80;68.15;95433.13;5037660;28;20045;-72
2022/03/13 01:17:45;;;;;;;24.35;9.88;;;;;;;-2.82;67.93;95423.00;5052600;28;20041;-72
2022/03/13 01:20:16;;;;;;;25.60;9.80;;;;;;;-2.96;68.48;95416.97;5044680;28;20047;-72
2022/03/13 01:22:48;;;;;;;19.70;9.35;;;;;;;-2.83;68.13;95421.41;5048633;28;20102;-72
2022/03/13 01:25:14;;;;;;;19.33;8.73;;;;;;;-2.80;67.54;95421.03;5044336;28;20037;-72
2022/03/13 01:27:40;;;;;;;23.05;9.18;;;;;;;-2.73;67.79;95426.25;5040571;28;20067;-72
2022/03/13 01:30:06;;;;;;;17.75;8.95;;;;;;;-2.67;67.24;95422.09;5029358;28;20499;-72
2022/03/13 01:32:32;;;;;;;22.85;9.25;;;;;;;-2.76;67.03;95416.28;5036266;28;20401;-72
2022/03/13 01:34:58;;;;;;;22.38;10.05;;;;;;;-2.85;68.71;95418.22;5047305;28;20067;-72
2022/03/13 01:37:30;;;;;;;22.38;10.73;;;;;;;-3.01;70.82;95419.28;5038105;28;20053;-72
2022/03/13 01:40:05;;;;;;;22.77;10.13;;;;;;;-3.00;69.75;95410.59;5045103;28;20048;-72
2022/03/13 01:42:31;;;;;;;20.88;9.65;;;;;;;-3.16;71.46;95410.84;5029439;28;20096;-72
2022/03/13 01:44:56;;;;;;;27.23;10.30;;;;;;;-3.21;71.00;95418.34;5064904;28;20079;-72
2022/03/13 01:47:23;;;;;;;21.33;9.50;;;;;;;-3.32;72.44;95420.44;5030714;28;20056;-72
2022/03/13 01:49:49;;;;;;;25.25;10.13;;;;;;;-3.16;71.53;95421.13;5042791;28;20048;-72
2022/03/13 01:52:16;;;;;;;27.92;10.18;;;;;;;-3.08;70.29;95418.44;5036308;28;20094;-72
2022/03/13 01:54:45;;;;;;;23.52;10.40;;;;;;;-3.25;72.17;95417.13;5046080;28;20052;-72
2022/03/13 01:57:16;;;;;;;20.73;8.95;;;;;;;-3.31;72.17;95414.28;5029238;28;20632;-72
2022/03/13 01:59:42;;;;;;;23.08;9.60;;;;;;;-3.28;71.99;95415.69;5037178;28;20048;-72
2022/03/13 02:02:08;;;;;;;25.17;9.77;;;;;;;-3.11;70.44;95418.81;5039379;28;20048;-72
2022/03/13 02:04:34;;;;;;;24.25;9.35;;;;;;;-3.09;70.62;95416.84;5032931;28;20046;-72
2022/03/13 02:06:59;;;;;;;32.10;10.00;;;;;;;-3.04;70.26;95414.53;5040256;28;20465;-72
2022/03/13 02:09:27;;;;;;;21.83;9.60;;;;;;;-3.02;69.65;95420.25;5032298;28;20048;-72
2022/03/13 02:11:54;;;;;;;21.23;9.77;;;;;;;-3.02;70.17;95422.84;5028452;28;20671;-72
2022/03/13 02:14:23;;;;;;;24.25;9.57;;;;;;;-3.06;70.78;95413.09;5042455;28;20047;-72
2022/03/13 02:16:50;;;;;;;23.23;9.35;;;;;;;-3.08;70.48;95413.28;5033100;28;20429;-72
2022/03/13 02:19:17;;;;;;;27.27;10.27;;;;;;;-3.36;72.34;95416.63;5041281;28;20490;-72
2022/03/13 02:21:44;;;;;;;20.58;8.93;;;;;;;-3.15;70.74;95413.25;5042268;28;20107;-72
2022/03/13 02:24:13;;;;;;;21.73;8.88;;;;;;;-3.12;70.07;95412.06;5040090;28;20037;-73
2022/03/13 02:26:42;;;;;;;20.83;9.38;;;;;;;-3.02;69.99;95422.06;5044696;28;20494;-72
2022/03/13 02:29:13;;;;;;;17.23;8.43;;;;;;;-3.06;69.51;95416.50;5050648;28;20049;-72
2022/03/13 02:31:40;;;;;;;23.92;9.25;;;;;;;-3.14;70.07;95414.84;5044619;28;20065;-72
2022/03/13 02:34:11;;;;;;;18.42;8.38;;;;;;;-3.15;70.06;95409.88;5037564;28;20145;-71
2022/03/13 02:36:37;;;;;;;18.52;8.63;;;;;;;-3.11;70.06;95408.53;5045293;28;20044;-71
2022/03/13 02:39:05;;;;;;;18.05;9.05;;;;;;;-3.10;69.70;95415.28;5041481;28;20495;-72
2022/03/13 02:41:31;;;;;;;23.58;9.07;;;;;;;-3.12;69.77;95406.91;5032327;28;20045;-72
2022/03/13 02:43:58;;;;;;;21.88;9.02;;;;;;;-3.08;69.79;95397.06;5031895;28;20057;-72
2022/03/13 02:46:42;;;;;;;18.85;8.65;;;;;;;-3.11;69.52;95408.53;5041102;28;20041;-71
2022/03/13 02:49:08;;;;;;;;;;;;;;;-3.15;69.71;95407.28;5043264;28;20037;-72
2022/03/13 02:51:34;;;;;;;16.77;7.82;;;;;;;-3.21;69.84;95413.19;5041285;28;20437;-72
2022/03/13 02:53:59;;;;;;;19.38;8.88;;;;;;;-3.21;70.17;95408.03;5031261;28;20052;-72
2022/03/13 02:56:25;;;;;;;18.23;8.57;;;;;;;-3.27;70.03;95413.94;5049169;28;20044;-71
2022/03/13 02:58:50;;;;;;;18.25;8.63;;;;;;;-3.13;69.66;95416.44;5046031;28;20052;-71
2022/03/13 03:01:18;;;;;;;19.13;8.05;;;;;;;-3.17;69.86;95404.13;5033172;28;20463;-71
2022/03/13 03:03:44;;;;;;;18.00;8.88;;;;;;;-3.27;70.01;95419.09;5033884;28;20061;-72
2022/03/13 03:06:12;;;;;;;18.40;8.40;;;;;;;-3.09;70.30;95416.06;5047034;28;20044;-71
2022/03/13 03:08:38;;;;;;;17.52;8.40;;;;;;;-3.21;70.01;95408.03;5031137;28;20140;-71
2022/03/13 03:11:03;;;;;;;19.45;8.80;;;;;;;-3.29;70.67;95415.88;5048408;28;20045;-71
2022/03/13 03:13:29;;;;;;;18.98;8.85;;;;;;;-3.35;70.68;95413.09;5043549;28;20041;-72
2022/03/13 03:15:54;;;;;;;20.67;8.23;;;;;;;-3.45;70.36;95415.16;5045820;28;21727;-72
2022/03/13 03:18:21;;;;;;;18.98;8.98;;;;;;;-3.37;70.02;95417.59;5040296;28;20042;-71
2022/03/13 03:20:47;;;;;;;21.17;8.90;;;;;;;-3.40;70.24;95425.69;5031322;28;20045;-72
2022/03/13 03:23:13;;;;;;;19.90;9.00;;;;;;;-3.46;70.22;95421.28;5031053;28;20627;-71
2022/03/13 03:25:39;;;;;;;16.42;8.35;;;;;;;-3.47;70.95;95419.69;5038688;28;20049;-71
2022/03/13 03:28:05;;;;;;;18.25;8.45;;;;;;;-3.51;70.34;95429.53;5055895;28;20041;-71
2022/03/13 03:30:31;;;;;;;17.48;8.25;;;;;;;-3.55;70.89;95422.38;5049934;28;20041;-71
2022/03/13 03:33:01;;;;;;;17.17;8.48;;;;;;;-3.48;70.96;95415.50;5041300;28;20052;-72
2022/03/13 03:35:27;;;;;;;22.48;8.77;;;;;;;-3.48;71.06;95418.09;5047125;28;20255;-71
2022/03/13 03:37:55;;;;;;;16.23;7.88;;;;;;;-3.49;71.02;95426.81;5053406;28;20048;-71
2022/03/13 03:40:22;;;;;;;17.08;8.30;;;;;;;-3.52;70.93;95422.00;5031002;28;20041;-71
2022/03/13 03:42:48;;;;;;;19.33;8.45;;;;;;;-3.58;71.21;95425.31;5030326;28;20049;-71
2022/03/13 03:45:16;;;;;;;17.23;7.75;;;;;;;-3.53;71.19;95430.72;5033635;28;20146;-71
2022/03/13 03:47:43;;;;;;;16.00;8.00;;;;;;;-3.56;71.17;95420.78;5048330;28;20041;-71
2022/03/13 03:50:09;;;;;;;16.95;7.93;;;;;;;-3.58;71.51;95417.59;5048544;28;20037;-71
2022/03/13 03:52:34;;;;;;;19.88;8.07;;;;;;;-3.64;71.49;95428.63;5047649;28;20609;-72
2022/03/13 03:55:00;;;;;;;17.08;8.50;;;;;;;-3.60;71.16;95429.84;5043174;28;20056;-71
2022/03/13 03:57:26;;;;;;;16.63;8.00;;;;;;;-3.63;71.63;95430.19;5036896;28;20045;-71
2022/03/13 03:59:51;;;;;;;17.42;8.15;;;;;;;-3.70;72.20;95430.94;5064956;28;20486;-71
2022/03/13 04:02:17;;;;;;;19.55;8.07;;;;;;;-3.74;71.81;95434.84;5031555;28;20041;-71
2022/03/13 04:04:43;;;;;;;18.88;8.38;;;;;;;-3.82;72.83;95437.53;5031924;28;20048;-71
2022/03/13 04:07:08;;;;;;;19.92;8.40;;;;;;;-3.72;72.34;95445.75;5043541;28;20045;-71
2022/03/13 04:09:34;;;;;;;21.60;8.40;;;;;;;-3.78;72.62;95443.88;5066401;28;20046;-71
2022/03/13 04:11:59;;;;;;;18.00;8.40;;;;;;;-3.81;72.67;95444.25;5047242;28;20049;-71
2022/03/13 04:14:25;;;;;;;17.88;8.77;;;;;;;-3.96;73.24;95440.94;5037945;28;20041;-71
2022/03/13 04:16:51;;;;;;;20.88;8.63;;;;;;;-4.02;72.78;95442.44;5037705;28;20045;-71
2022/03/13 04:19:19;;;;;;;18.83;8.20;;;;;;;-4.03;73.31;95436.50;5053200;28;20047;-71
2022/03/13 04:21:45;;;;;;;14.38;7.78;;;;;;;-4.07;73.39;95445.53;5049866;28;20164;-71
2022/03/13 04:24:12;;;;;;;17.45;9.20;;;;;;;-4.04;73.79;95440.06;5048015;28;20494;-71
2022/03/13 04:26:42;;;;;;;20.73;8.05;;;;;;;-3.94;73.22;95438.97;5039223;28;20055;-72
2022/03/13 04:29:09;;;;;;;19.77;8.43;;;;;;;-4.02;72.93;95440.66;5030852;28;20469;-73
2022/03/13 04:31:37;;;;;;;17.27;8.05;;;;;;;-4.00;73.06;95443.84;5038112;28;20049;-72
2022/03/13 04:34:04;;;;;;;25.25;8.57;;;;;;;-4.04;73.05;95445.22;5041595;28;20052;-71
2022/03/13 04:36:33;;;;;;;16.73;8.10;;;;;;;-4.22;73.84;95442.22;5034656;28;20029;-71
2022/03/13 04:39:03;;;;;;;17.48;8.00;;;;;;;-4.30;74.02;95444.84;5039418;28;20049;-71
2022/03/13 04:41:29;;;;;;;16.35;8.27;;;;;;;-4.16;73.42;95446.63;5029938;28;20038;-71
2022/03/13 04:43:55;;;;;;;17.30;8.40;;;;;;;-4.10;73.41;95445.91;5037182;28;20613;-71
2022/03/13 04:46:20;;;;;;;18.58;8.25;;;;;;;-3.97;72.91;95454.75;5040242;28;20041;-71
2022/03/13 04:48:46;;;;;;;17.05;7.60;;;;;;;-4.01;73.35;95449.16;5037641;28;20453;-71
2022/03/13 04:51:12;;;;;;;17.70;8.18;;;;;;;-4.03;73.07;95451.91;5047206;28;20043;-71
2022/03/13 04:53:38;;;;;;;17.25;7.90;;;;;;;-4.09;73.39;95447.50;5047406;28;20594;-71
2022/03/13 04:56:04;;;;;;;17.42;8.13;;;;;;;-4.13;73.47;95440.34;5033924;28;20446;-71
2022/03/13 04:58:31;;;;;;;17.40;8.52;;;;;;;-4.21;73.70;95452.31;5037503;28;20140;-71
2022/03/13 05:00:56;;;;;;;25.77;9.05;;;;;;;-4.28;73.96;95455.75;5029392;28;20046;-71
2022/03/13 05:03:22;;;;;;;19.13;7.80;;;;;;;-4.19;74.09;95457.25;5043029;28;20153;-71
2022/03/13 05:05:48;;;;;;;17.92;8.13;;;;;;;-4.14;73.48;95460.06;5041361;28;20124;-70
2022/03/13 05:08:15;;;;;;;16.05;8.20;;;;;;;-4.37;74.19;95461.00;5040435;28;20088;-70
2022/03/13 05:10:43;;;;;;;18.38;8.30;;;;;;;-4.18;74.09;95469.13;5033294;28;20395;-71
2022/03/13 05:13:11;;;;;;;15.35;7.50;;;;;;;-4.24;73.48;95474.97;5044395;28;20116;-70
2022/03/13 05:15:39;;;;;;;15.98;7.13;;;;;;;-4.28;73.76;95474.53;5056795;28;20049;-71
2022/03/13 05:18:05;;;;;;;14.68;7.72;;;;;;;-4.35;74.00;95477.00;5040309;28;20418;-71
2022/03/13 05:20:32;;;;;;;18.60;7.55;;;;;;;-4.24;73.75;95475.78;5038883;28;20033;-71
2022/03/13 05:22:58;;;;;;;17.45;7.07;;;;;;;-4.22;73.88;95475.63;5033190;28;20487;-71
2022/03/13 05:25:24;;;;;;;22.27;8.20;;;;;;;-4.20;73.49;95477.00;5044110;28;20043;-70
2022/03/13 05:27:53;;;;;;;17.25;8.38;;;;;;;-4.35;74.25;95482.16;5040631;28;20154;-71
2022/03/13 05:30:20;;;;;;;20.38;7.90;;;;;;;-4.39;74.83;95483.47;5043534;28;20041;-71
2022/03/13 05:32:46;;;;;;;21.85;7.88;;;;;;;-4.33;74.64;95486.31;5033726;28;20055;-70
2022/03/13 05:35:12;;;;;;;18.60;8.20;;;;;;;-4.26;73.88;95487.22;5033501;28;20064;-71
2022/03/13 05:37:38;;;;;;;15.65;7.53;;;;;;;-4.32;74.11;95482.75;5042629;28;20053;-70
2022/03/13 05:40:05;;;;;;;21.55;8.50;;;;;;;-4.40;73.93;95487.00;5044372;28;20418;-71
2022/03/13 05:42:31;;;;;;;17.85;7.68;;;;;;;-4.33;73.70;95492.25;5052857;28;20082;-71
2022/03/13 05:44:56;;;;;;;16.63;7.70;;;;;;;-4.32;73.93;95499.00;5036363;28;20049;-71
2022/03/13 05:47:22;;;;;;;16.25;7.70;;;;;;;-4.39;74.36;95498.88;5046475;28;20797;-71
2022/03/13 05:49:49;;;;;;;13.98;6.82;;;;;;;-4.39;74.37;95498.88;5048632;28;20045;-71
2022/03/13 05:52:15;;;;;;;16.73;7.82;;;;;;;-4.33;74.67;95501.75;5045290;28;20048;-71
2022/03/13 05:54:44;;;;;;;16.13;7.70;;;;;;;-4.37;74.40;95507.25;5031709;28;20071;-71
2022/03/13 05:57:11;;;;;;;16.55;7.40;;;;;;;-4.42;74.54;95506.94;5039765;28;20045;-72
2022/03/13 05:59:38;;;;;;;18.30;8.10;;;;;;;-4.32;74.03;95513.59;5052328;28;20049;-72
2022/03/13 06:02:05;;;;;;;20.67;8.20;;;;;;;-4.25;74.34;95514.50;5041592;28;20183;-72
2022/03/13 06:04:37;;;;;;;15.57;8.13;;;;;;;-4.25;74.05;95506.78;5038787;28;20034;-74
2022/03/13 06:07:04;;;;;;;19.98;8.60;;;;;;;-4.13;73.77;95513.09;5046562;28;20044;-72
2022/03/13 06:09:30;;;;;;;19.67;8.60;;;;;;;-4.04;73.66;95514.59;5043444;28;20052;-71
2022/03/13 06:11:55;;;;;;;14.75;8.00;;;;;;;-3.96;73.37;95515.50;5035377;28;20049;-71
2022/03/13 06:14:22;;;;;;;15.93;8.05;;;;;;;-3.96;73.96;95515.50;5029927;28;20662;-72
2022/03/13 06:16:48;;;;;;;15.88;7.35;;;;;;;-4.03;73.50;95516.19;5036412;28;20045;-71
2022/03/13 06:19:13;;;;;;;15.95;7.97;;;;;;;-3.97;73.87;95506.19;5036119;28;20091;-71
2022/03/13 06:21:40;;;;;;;17.98;7.75;;;;;;;-3.77;73.09;95512.34;5034527;28;20052;-69
2022/03/13 06:24:06;;;;;;;15.25;7.82;;;;;;;-3.82;73.16;95519.81;5045050;28;20430;-70
2022/03/13 06:26:31;;;;;;;18.60;8.27;;;;;;;-3.84;73.25;95521.75;5048978;28;20044;-70
2022/03/13 06:28:57;;;;;;;16.98;8.43;;;;;;;-3.92;73.75;95516.72;5050301;28;20052;-71
2022/03/13 06:31:23;;;;;;;18.95;7.65;;;;;;;-3.77;73.98;95517.50;5043119;28;20052;-70
2022/03/13 06:33:48;;;;;;;17.48;7.57;;;;;;;-3.60;73.50;95522.47;5045732;28;20044;-71
2022/03/13 06:36:14;;;;;;;17.30;8.18;;;;;;;-3.50;73.15;95522.97;5051591;28;20073;-72
2022/03/13 06:38:39;;;;;;;16.75;8.23;;;;;;;-3.46;72.84;95521.63;5049137;28;20041;-72
2022/03/13 06:41:05;;;;;;;16.88;8.18;;;;;;;-3.09;71.63;95514.66;5042915;28;20643;-72
2022/03/13 06:43:33;;;;;;;15.50;7.78;;;;;;;-2.97;71.36;95522.72;5033580;28;20034;-72
2022/03/13 06:45:58;;;;;;;18.70;7.78;;;;;;;-2.96;71.33;95525.13;5037773;28;20049;-75
2022/03/13 06:48:26;;;;;;;17.27;8.18;;;;;;;-2.79;70.90;95524.84;5044815;28;20406;-74
2022/03/13 06:50:51;;;;;;;16.83;7.68;;;;;;;-3.02;71.82;95525.84;5044197;28;20041;-74
2022/03/13 06:53:17;;;;;;;15.80;7.38;;;;;;;-2.71;70.62;95527.31;5045314;28;20581;-74
2022/03/13 06:55:43;;;;;;;17.75;8.27;;;;;;;-2.41;69.70;95527.16;5047746;28;20044;-73
2022/03/13 06:58:08;;;;;;;18.45;8.32;;;;;;;-2.65;70.67;95526.56;5058284;28;20061;-73
2022/03/13 07:00:34;;;;;;;18.17;8.25;;;;;;;-2.67;71.00;95535.44;5049284;28;20048;-72
2022/03/13 07:02:59;;;;;;;14.57;7.15;;;;;;;-2.69;71.56;95540.00;5035684;28;20037;-72
2022/03/13 07:05:25;;;;;;;18.00;8.50;;;;;;;-2.71;71.92;95535.03;5043134;28;20090;-73
2022/03/13 07:07:54;;;;;;;16.80;8.77;;;;;;;-2.69;71.94;95545.94;5053934;28;20451;-76
2022/03/13 07:10:20;;;;;;;21.55;9.63;;;;;;;-2.34;72.26;95548.63;5046336;28;20040;-76
2022/03/13 07:12:46;;;;;;;21.13;9.30;;;;;;;-2.36;71.40;95545.41;5039075;28;20091;-74
2022/03/13 07:15:14;;;;;;;19.15;9.10;;;;;;;-2.36;71.65;95542.84;5048973;28;20045;-76
2022/03/13 07:17:46;;;;;;;19.45;8.77;;;;;;;-2.39;71.92;95543.22;5046142;28;20065;-78
2022/03/13 07:20:13;;;;;;;20.55;9.05;;;;;;;-2.42;71.76;95559.06;5047864;28;20040;-77
2022/03/13 07:22:40;;;;;;;19.25;9.75;;;;;;;-2.36;71.62;95545.41;5039635;28;20112;-70
2022/03/13 07:25:06;;;;;;;19.67;8.65;;;;;;;-2.32;72.06;95549.22;5044719;28;20049;-70
2022/03/13 07:27:31;;;;;;;18.15;9.27;;;;;;;-2.26;71.81;95545.09;5042847;28;20045;-70
2022/03/13 07:29:57;;;;;;;19.25;9.70;;;;;;;-2.22;71.01;95541.16;5031276;28;20064;-71
2022/03/13 07:32:22;;;;;;;17.27;8.40;;;;;;;-2.08;70.54;95536.91;5034572;28;20037;-71
2022/03/13 07:34:48;;;;;;;21.60;9.52;;;;;;;-2.05;70.46;95536.50;5040009;28;20045;-71
2022/03/13 07:37:13;;;;;;;20.10;9.25;;;;;;;-1.98;71.04;95537.34;5047485;28;20086;-73
2022/03/13 07:39:39;;;;;;;18.80;9.50;;;;;;;-1.90;71.14;95533.03;5041362;28;20072;-73
2022/03/13 07:42:06;;;;;;;20.67;9.43;;;;;;;-1.84;71.10;95542.56;5038826;28;20037;-74
2022/03/13 07:44:31;;;;;;;19.92;9.82;;;;;;;-1.77;70.38;95538.25;5049564;28;20051;-73
2022/03/13 07:46:57;;;;;;;19.27;9.35;;;;;;;-1.68;70.17;95542.28;5042911;28;20057;-74
2022/03/13 07:49:23;;;;;;;22.88;9.80;;;;;;;-1.57;70.23;95533.19;5044684;28;20049;-74
2022/03/13 07:51:48;;;;;;;18.70;9.13;;;;;;;-1.48;70.32;95541.56;5046291;28;20486;-73
2022/03/13 07:54:14;;;;;;;19.52;9.23;;;;;;;-1.10;68.63;95528.19;5044650;28;20040;-72
2022/03/13 07:56:41;;;;;;;22.63;10.10;;;;;;;-0.67;67.78;95533.00;5042091;28;20052;-75
2022/03/13 07:59:07;;;;;;;18.27;8.98;;;;;;;-0.58;67.76;95531.81;5043985;28;20040;-73
2022/03/13 08:01:33;;;;;;;20.80;9.45;;;;;;;-0.49;66.80;95529.03;5048923;28;20508;-72
2022/03/13 08:04:04;;;;;;;20.48;9.45;;;;;;;-0.20;66.10;95533.81;5039719;28;20046;-74
2022/03/13 08:06:34;;;;;;;20.92;9.55;;;;;;;0.24;63.92;95530.75;5043933;28;20046;-73
2022/03/13 08:09:00;;;;;;;21.00;10.10;;;;;;;0.29;64.64;95533.53;5037543;28;20041;-73
2022/03/13 08:11:26;;;;;;;21.98;9.70;;;;;;;0.43;64.28;95532.47;5049920;28;20438;-73
2022/03/13 08:13:52;;;;;;;21.05;9.52;;;;;;;0.33;64.40;95532.09;5043005;28;20041;-73
2022/03/13 08:16:18;;;;;;;20.55;8.95;;;;;;;0.31;64.82;95534.09;5049975;28;20053;-72
2022/03/13 08:18:45;;;;;;;22.25;9.15;;;;;;;0.22;65.30;95532.75;5041339;28;20053;-72
2022/03/13 08:21:10;;;;;;;19.50;9.00;;;;;;;0.25;64.98;95529.75;5042155;28;20040;-73
2022/03/13 08:23:36;;;;;;;20.73;9.05;;;;;;;0.39;65.60;95531.28;5043277;28;20072;-73
2022/03/13 08:26:01;;;;;;;18.58;9.73;;;;;;;1.10;63.24;95532.16;5037057;28;20494;-72
2022/03/13 08:28:27;;;;;;;21.52;10.07;;;;;;;1.15;63.43;95529.75;5036027;28;20044;-72
2022/03/13 08:30:53;;;;;;;21.70;10.23;;;;;;;1.18;63.60;95529.31;5049422;28;20049;-73
2022/03/13 08:33:18;;;;;;;20.50;9.82;;;;;;;1.14;63.75;95530.75;5036367;28;20037;-73
2022/03/13 08:35:44;;;;;;;21.63;9.55;;;;;;;1.24;63.45;95532.09;5040403;28;20168;-70
2022/03/13 08:38:10;;;;;;;22.00;10.55;;;;;;;1.32;63.34;95530.03;5041374;28;20056;-70
2022/03/13 08:40:36;;;;;;;18.27;9.68;;;;;;;1.92;60.04;95527.97;5047175;28;20045;-70
2022/03/13 08:43:01;;;;;;;22.70;10.00;;;;;;;1.81;61.22;95526.84;5042813;28;20481;-71
2022/03/13 08:45:27;;;;;;;21.00;9.70;;;;;;;1.65;62.62;95528.19;5040073;28;20044;-70
2022/03/13 08:47:52;;;;;;;22.13;9.80;;;;;;;1.60;62.78;95520.25;5039044;28;20395;-72
2022/03/13 08:50:18;;;;;;;20.95;9.93;;;;;;;1.66;61.59;95524.59;5028506;28;20045;-72
2022/03/13 08:52:44;;;;;;;22.15;10.07;;;;;;;1.73;62.53;95520.13;5037422;28;20068;-72
2022/03/13 08:55:13;;;;;;;21.02;10.25;;;;;;;1.81;62.34;95524.25;5047853;28;20049;-71
2022/03/13 08:57:41;;;;;;;20.15;9.60;;;;;;;1.82;62.07;95518.06;5034963;28;20077;-70
2022/03/13 09:00:11;;;;;;;21.45;10.18;;;;;;;1.86;61.64;95524.41;5047083;28;20099;-71
2022/03/13 09:02:38;;;;;;;23.95;10.13;;;;;;;2.49;58.94;95515.59;5046768;28;20049;-71
2022/03/13 09:05:04;;;;;;;23.88;10.38;;;;;;;2.58;59.01;95516.84;5046090;28;20045;-71
2022/03/13 09:07:29;;;;;;;24.02;10.88;;;;;;;2.92;57.92;95512.03;5051670;28;20033;-72
2022/03/13 09:09:55;;;;;;;22.77;10.60;;;;;;;3.03;57.40;95517.50;5039454;28;20418;-72
2022/03/13 09:12:20;;;;;;;22.65;10.00;;;;;;;3.62;55.08;95523.66;5037403;28;20036;-70
2022/03/13 09:14:46;;;;;;;27.98;11.38;;;;;;;3.71;53.91;95521.50;5049061;28;20121;-72
2022/03/13 09:17:12;;;;;;;23.27;10.82;;;;;;;3.79;54.42;95520.38;5038608;28;20061;-72
2022/03/13 09:19:38;;;;;;;24.27;11.40;;;;;;;3.99;55.10;95520.84;5046093;28;20153;-73
2022/03/13 09:22:04;;;;;;;25.65;11.23;;;;;;;4.05;54.04;95513.13;5047694;28;20411;-73
2022/03/13 09:24:30;;;;;;;21.75;10.23;;;;;;;4.42;53.51;95510.25;5044682;28;20048;-74
2022/03/13 09:26:55;;;;;;;20.88;10.68;;;;;;;4.40;53.01;95510.47;5048459;28;20048;-72
2022/03/13 09:29:22;;;;;;;24.33;10.55;;;;;;;4.58;52.84;95506.91;5038281;28;20037;-72
2022/03/13 09:31:47;;;;;;;21.25;10.93;;;;;;;4.74;51.18;95515.03;5030111;28;20651;-72
2022/03/13 09:34:13;;;;;;;26.55;11.63;;;;;;;4.87;52.11;95509.56;5044965;28;20045;-71
2022/03/13 09:36:42;;;;;;;22.85;10.82;;;;;;;5.24;49.66;95511.75;5052844;28;20044;-72
2022/03/13 09:39:08;;;;;;;24.15;11.70;;;;;;;5.70;48.94;95512.53;5041814;28;20503;-72
2022/03/13 09:41:37;;;;;;;24.13;10.27;;;;;;;6.14;47.23;95511.06;5051399;28;20064;-73
2022/03/13 09:44:05;;;;;;;25.88;10.50;;;;;;;6.28;47.00;95507.09;5045252;28;20045;-72
2022/03/13 09:46:30;;;;;;;21.75;10.65;;;;;;;6.49;45.91;95507.34;5040922;28;20050;-71
2022/03/13 09:48:56;;;;;;;22.23;11.40;;;;;;;6.68;44.78;95506.00;5034714;28;20044;-71
2022/03/13 09:51:22;;;;;;;25.25;11.25;;;;;;;6.78;45.25;95499.28;5039567;28;20044;-72
2022/03/13 09:53:47;;;;;;;23.20;11.13;;;;;;;7.03;43.45;95502.19;5056642;28;20521;-73
2022/03/13 09:56:13;;;;;;;22.88;10.57;;;;;;;7.31;42.47;95502.94;5047171;28;20049;-74
2022/03/13 09:58:40;;;;;;;23.77;10.90;;;;;;;7.41;41.76;95503.06;5043094;28;20045;-73
2022/03/13 10:01:07;;;;;;;20.02;10.77;;;;;;;7.63;41.78;95495.13;5046933;28;20077;-73
2022/03/13 10:03:33;;;;;;;21.27;10.65;;;;;;;7.90;41.30;95496.06;5048388;28;20053;-73
2022/03/13 10:05:59;;;;;;;23.35;11.68;;;;;;;8.22;40.79;95495.25;5050065;28;20049;-72
2022/03/13 10:08:31;;;;;;;21.67;10.75;;;;;;;8.47;39.30;95498.00;5047013;28;20072;-73
2022/03/13 10:10:57;;;;;;;21.67;11.57;;;;;;;8.65;39.23;95488.13;5034357;28;20046;-74
2022/03/13 10:13:45;;;;;;;20.50;11.13;;;;;;;9.09;38.50;95487.69;5049999;28;20041;-72
2022/03/13 10:16:34;;;;;;;20.83;11.15;;;;;;;9.37;38.03;95488.25;5032671;28;20415;-72
2022/03/13 10:19:17;;;;;;;22.10;11.05;;;;;;;10.08;36.56;95481.38;5042435;28;20041;-73
2022/03/13 10:22:00;;;;;;;19.38;10.07;;;;;;;10.84;35.34;95479.53;5043573;28;20065;-72
2022/03/13 10:24:26;;;;;;;23.45;11.23;;;;;;;12.22;32.91;95471.66;5051467;28;20045;-73
2022/03/13 10:27:09;;;;;;;22.80;11.50;;;;;;;13.05;31.43;95460.88;5044750;28;20045;-72
2022/03/13 10:29:35;;;;;;;22.35;11.70;;;;;;;13.18;30.59;95459.38;5033718;28;20049;-72
2022/03/13 10:32:00;;;;;;;24.40;11.75;;;;;;;14.51;29.42;95466.13;5043590;28;20040;-74
2022/03/13 10:34:26;;;;;;;21.08;12.68;;;;;;;14.27;29.33;95464.47;5039859;28;20120;-75
2022/03/13 10:36:52;;;;;;;21.23;12.45;;;;;;;13.96;29.64;95466.91;5053081;28;20042;-73
2022/03/13 10:39:19;;;;;;;20.38;12.50;;;;;;;14.85;28.49;95454.38;5043369;28;20041;-73
2022/03/13 10:41:45;;;;;;;21.65;12.98;;;;;;;14.93;28.07;95450.22;5044754;28;20406;-73
2022/03/13 10:44:16;;;;;;;23.23;13.38;;;;;;;15.42;27.28;95452.03;5045699;28;20060;-72
2022/03/13 10:46:42;;;;;;;20.90;12.77;;;;;;;15.16;27.06;95453.72;5038549;28;20042;-72
2022/03/13 10:49:09;;;;;;;24.40;13.70;;;;;;;15.99;27.06;95448.03;5050679;28;20577;-72
2022/03/13 10:51:36;;;;;;;27.27;13.98;;;;;;;16.96;25.20;95446.47;5051074;28;20380;-73
2022/03/13 10:54:03;;;;;;;23.48;14.60;;;;;;;16.97;24.42;95448.03;5049535;28;20091;-72
2022/03/13 10:56:29;;;;;;;25.65;14.90;;;;;;;16.50;25.50;95445.09;5035203;28;20063;-71
2022/03/13 10:58:56;;;;;;;25.65;14.75;;;;;;;16.88;24.95;95445.38;5055224;28;20036;-72
2022/03/13 11:01:23;;;;;;;29.40;15.20;;;;;;;16.60;24.56;95447.47;5057985;28;20051;-71
2022/03/13 11:03:54;;;;;;;24.92;14.48;;;;;;;15.91;24.79;95446.88;5056311;28;20040;-72
2022/03/13 11:06:24;;;;;;;28.25;16.15;;;;;;;15.79;25.48;95448.53;5030255;28;20050;-72
2022/03/13 11:08:53;;;;;;;25.90;15.23;;;;;;;15.66;26.00;95444.84;5042087;28;20048;-72
2022/03/13 11:11:19;;;;;;;32.03;16.83;;;;;;;15.66;26.47;95440.34;5042775;28;20494;-71
2022/03/13 11:13:53;;;;;;;32.20;16.17;;;;;;;16.87;25.39;95435.03;5049615;28;20607;-72
2022/03/13 11:16:24;;;;;;;26.85;15.48;;;;;;;17.54;24.18;95439.09;5044992;28;20041;-72
2022/03/13 11:18:51;;;;;;;27.05;15.07;;;;;;;15.61;25.80;95443.09;5037552;28;20041;-71
2022/03/13 11:21:19;;;;;;;27.73;16.92;;;;;;;16.09;25.36;95437.16;5039237;28;20120;-71
2022/03/13 11:23:45;;;;;;;32.25;16.00;;;;;;;16.97;24.80;95432.09;5037866;28;20781;-72